KTIK

Tinker AFB Airport

Oklahoma City, Oklahoma, USA
METAR KTIK 220456Z AUTO 19004KT 10SM CLR 25/18 A2987 RMK AO2 SLP108 T02470184
Observed Flight Rules
Jun-22 @ 04:56 UTC (34 minutes ago) Visual Flight Rules
Wind Visibility Clouds
190° at 4 knots 10 miles
  • Clear skies
Temperatures Readings
Current 25°C / 77°F
Dewpoint 18°C / 64°F
Humidity 65%
Altimeter 29.87" Hg
Pressure 1010.8 hPa
Elevation 394
METAR KTIK 220456Z AUTO 19004KT 10SM CLR 25/18 A2987 RMK AO2 SLP108 T02470184
Observed Flight Rules
Jun-22 @ 04:56 UTC
(34 minutes ago)
VFR
Wind Visibility
190° at 4 knots 10 miles
Clouds
  • Clear skies
Temperature Dewpoint
25°C / 77°F 18°C / 64°F
Humidity Altimeter Pressure
65% 29.87" Hg 1010.8 hPa